sensor_id;sensor_type;location;lat;lon;timestamp;P1;durP1;ratioP1;P2;durP2;ratioP2
15996;SDS011;8103;51.340;12.326;2023-05-10T00:02:16;5.30;;;3.10;;
15996;SDS011;8103;51.340;12.326;2023-05-10T00:04:45;3.42;;;3.13;;
15996;SDS011;8103;51.340;12.326;2023-05-10T00:07:12;3.40;;;2.97;;
15996;SDS011;8103;51.340;12.326;2023-05-10T00:09:39;3.53;;;3.10;;
15996;SDS011;8103;51.340;12.326;2023-05-10T00:12:06;2.97;;;2.78;;
15996;SDS011;8103;51.340;12.326;2023-05-10T00:14:33;4.03;;;2.92;;
15996;SDS011;8103;51.340;12.326;2023-05-10T00:17:00;5.18;;;3.28;;
15996;SDS011;8103;51.340;12.326;2023-05-10T00:19:27;3.67;;;3.00;;
15996;SDS011;8103;51.340;12.326;2023-05-10T00:21:53;3.20;;;2.60;;
15996;SDS011;8103;51.340;12.326;2023-05-10T00:24:20;3.22;;;2.90;;
15996;SDS011;8103;51.340;12.326;2023-05-10T00:26:48;5.40;;;3.40;;
15996;SDS011;8103;51.340;12.326;2023-05-10T00:29:15;3.28;;;2.97;;
15996;SDS011;8103;51.340;12.326;2023-05-10T00:31:42;5.03;;;2.83;;
15996;SDS011;8103;51.340;12.326;2023-05-10T00:34:08;4.15;;;2.80;;
15996;SDS011;8103;51.340;12.326;2023-05-10T00:36:36;3.72;;;3.00;;
15996;SDS011;8103;51.340;12.326;2023-05-10T00:39:02;4.20;;;3.60;;
15996;SDS011;8103;51.340;12.326;2023-05-10T00:41:29;3.83;;;2.88;;
15996;SDS011;8103;51.340;12.326;2023-05-10T00:43:59;3.45;;;2.97;;
15996;SDS011;8103;51.340;12.326;2023-05-10T00:46:27;5.00;;;2.78;;
15996;SDS011;8103;51.340;12.326;2023-05-10T00:48:54;3.83;;;2.75;;
15996;SDS011;8103;51.340;12.326;2023-05-10T00:51:21;2.83;;;2.50;;
15996;SDS011;8103;51.340;12.326;2023-05-10T00:53:48;3.85;;;3.45;;
15996;SDS011;8103;51.340;12.326;2023-05-10T00:56:17;4.22;;;2.80;;
15996;SDS011;8103;51.340;12.326;2023-05-10T00:58:44;4.13;;;2.97;;
15996;SDS011;8103;51.340;12.326;2023-05-10T01:01:11;3.65;;;3.20;;
15996;SDS011;8103;51.340;12.326;2023-05-10T01:03:38;3.30;;;3.00;;
15996;SDS011;8103;51.340;12.326;2023-05-10T01:06:06;3.33;;;3.03;;
15996;SDS011;8103;51.340;12.326;2023-05-10T01:08:33;4.78;;;3.00;;
15996;SDS011;8103;51.340;12.326;2023-05-10T01:11:00;4.97;;;2.97;;
15996;SDS011;8103;51.340;12.326;2023-05-10T01:13:33;6.45;;;3.65;;
15996;SDS011;8103;51.340;12.326;2023-05-10T01:16:05;4.15;;;2.90;;
15996;SDS011;8103;51.340;12.326;2023-05-10T01:18:34;3.92;;;3.17;;
15996;SDS011;8103;51.340;12.326;2023-05-10T01:30:01;2.83;;;2.50;;
15996;SDS011;8103;51.340;12.326;2023-05-10T01:32:43;4.00;;;3.15;;
15996;SDS011;8103;51.340;12.326;2023-05-10T01:35:37;4.15;;;3.50;;
15996;SDS011;8103;51.340;12.326;2023-05-10T01:38:29;2.40;;;2.20;;
15996;SDS011;8103;51.340;12.326;2023-05-10T01:44:01;3.95;;;3.05;;
15996;SDS011;8103;51.340;12.326;2023-05-10T01:46:39;2.40;;;2.20;;
15996;SDS011;8103;51.340;12.326;2023-05-10T01:52:18;4.07;;;3.53;;
15996;SDS011;8103;51.340;12.326;2023-05-10T01:55:04;3.42;;;2.72;;
15996;SDS011;8103;51.340;12.326;2023-05-10T01:57:36;3.70;;;3.13;;
15996;SDS011;8103;51.340;12.326;2023-05-10T02:00:07;4.80;;;3.03;;
15996;SDS011;8103;51.340;12.326;2023-05-10T02:02:37;5.97;;;3.00;;
15996;SDS011;8103;51.340;12.326;2023-05-10T02:05:08;3.22;;;2.50;;
15996;SDS011;8103;51.340;12.326;2023-05-10T02:07:39;3.30;;;3.00;;
15996;SDS011;8103;51.340;12.326;2023-05-10T02:10:08;3.75;;;2.67;;
15996;SDS011;8103;51.340;12.326;2023-05-10T02:12:39;6.72;;;3.35;;
15996;SDS011;8103;51.340;12.326;2023-05-10T02:15:10;3.47;;;2.72;;
15996;SDS011;8103;51.340;12.326;2023-05-10T02:17:41;4.80;;;3.13;;
15996;SDS011;8103;51.340;12.326;2023-05-10T02:20:09;4.90;;;3.63;;
15996;SDS011;8103;51.340;12.326;2023-05-10T02:22:38;5.30;;;3.17;;
15996;SDS011;8103;51.340;12.326;2023-05-10T02:25:07;3.85;;;3.53;;
15996;SDS011;8103;51.340;12.326;2023-05-10T02:27:37;3.42;;;3.13;;
15996;SDS011;8103;51.340;12.326;2023-05-10T02:30:09;3.47;;;3.05;;
15996;SDS011;8103;51.340;12.326;2023-05-10T02:32:37;3.15;;;2.75;;
15996;SDS011;8103;51.340;12.326;2023-05-10T02:35:06;3.70;;;2.95;;
15996;SDS011;8103;51.340;12.326;2023-05-10T02:37:36;7.03;;;2.97;;
15996;SDS011;8103;51.340;12.326;2023-05-10T02:40:05;4.43;;;3.25;;
15996;SDS011;8103;51.340;12.326;2023-05-10T02:42:35;4.85;;;3.50;;
15996;SDS011;8103;51.340;12.326;2023-05-10T02:45:05;4.70;;;3.15;;
15996;SDS011;8103;51.340;12.326;2023-05-10T02:47:38;4.45;;;2.85;;
15996;SDS011;8103;51.340;12.326;2023-05-10T02:50:05;4.90;;;2.78;;
15996;SDS011;8103;51.340;12.326;2023-05-10T02:52:38;5.85;;;3.67;;
15996;SDS011;8103;51.340;12.326;2023-05-10T02:55:11;8.13;;;3.33;;
15996;SDS011;8103;51.340;12.326;2023-05-10T02:57:43;3.53;;;3.00;;
15996;SDS011;8103;51.340;12.326;2023-05-10T03:00:18;3.45;;;2.70;;
15996;SDS011;8103;51.340;12.326;2023-05-10T03:02:45;3.90;;;2.92;;
15996;SDS011;8103;51.340;12.326;2023-05-10T03:05:11;5.40;;;3.00;;
15996;SDS011;8103;51.340;12.326;2023-05-10T03:07:38;3.50;;;3.05;;
15996;SDS011;8103;51.340;12.326;2023-05-10T03:10:05;4.47;;;3.20;;
15996;SDS011;8103;51.340;12.326;2023-05-10T03:12:52;3.38;;;3.05;;
15996;SDS011;8103;51.340;12.326;2023-05-10T03:15:46;3.17;;;2.67;;
15996;SDS011;8103;51.340;12.326;2023-05-10T03:18:33;3.75;;;3.10;;
15996;SDS011;8103;51.340;12.326;2023-05-10T03:21:11;3.60;;;2.83;;
15996;SDS011;8103;51.340;12.326;2023-05-10T03:23:44;3.72;;;3.22;;
15996;SDS011;8103;51.340;12.326;2023-05-10T03:26:18;2.80;;;2.55;;
15996;SDS011;8103;51.340;12.326;2023-05-10T03:28:52;6.18;;;3.33;;
15996;SDS011;8103;51.340;12.326;2023-05-10T03:31:20;3.00;;;2.78;;
15996;SDS011;8103;51.340;12.326;2023-05-10T03:33:48;3.58;;;3.28;;
15996;SDS011;8103;51.340;12.326;2023-05-10T03:36:16;3.90;;;2.70;;
15996;SDS011;8103;51.340;12.326;2023-05-10T03:38:44;3.13;;;2.80;;
15996;SDS011;8103;51.340;12.326;2023-05-10T03:41:11;3.22;;;2.92;;
15996;SDS011;8103;51.340;12.326;2023-05-10T03:43:38;4.05;;;3.53;;
15996;SDS011;8103;51.340;12.326;2023-05-10T03:46:05;5.25;;;3.15;;
15996;SDS011;8103;51.340;12.326;2023-05-10T03:48:32;4.05;;;3.17;;
15996;SDS011;8103;51.340;12.326;2023-05-10T03:50:59;3.42;;;2.78;;
15996;SDS011;8103;51.340;12.326;2023-05-10T03:53:26;4.07;;;2.70;;
15996;SDS011;8103;51.340;12.326;2023-05-10T03:55:53;4.35;;;3.33;;
15996;SDS011;8103;51.340;12.326;2023-05-10T03:58:20;3.38;;;2.97;;
15996;SDS011;8103;51.340;12.326;2023-05-10T04:00:47;4.05;;;2.80;;
15996;SDS011;8103;51.340;12.326;2023-05-10T04:03:14;5.65;;;3.13;;
15996;SDS011;8103;51.340;12.326;2023-05-10T04:05:41;6.13;;;3.00;;
15996;SDS011;8103;51.340;12.326;2023-05-10T04:08:08;3.60;;;3.30;;
15996;SDS011;8103;51.340;12.326;2023-05-10T04:10:35;7.28;;;4.38;;
15996;SDS011;8103;51.340;12.326;2023-05-10T04:13:02;8.27;;;4.68;;
15996;SDS011;8103;51.340;12.326;2023-05-10T04:15:28;3.25;;;2.80;;
15996;SDS011;8103;51.340;12.326;2023-05-10T04:17:55;3.17;;;2.88;;
15996;SDS011;8103;51.340;12.326;2023-05-10T04:20:22;4.63;;;3.40;;
15996;SDS011;8103;51.340;12.326;2023-05-10T04:22:49;4.05;;;3.20;;
15996;SDS011;8103;51.340;12.326;2023-05-10T04:25:16;3.38;;;3.08;;
15996;SDS011;8103;51.340;12.326;2023-05-10T04:27:43;4.75;;;3.15;;
15996;SDS011;8103;51.340;12.326;2023-05-10T04:30:10;3.60;;;2.80;;
15996;SDS011;8103;51.340;12.326;2023-05-10T04:32:37;3.58;;;3.00;;
15996;SDS011;8103;51.340;12.326;2023-05-10T04:35:04;3.03;;;2.70;;
15996;SDS011;8103;51.340;12.326;2023-05-10T04:37:31;3.53;;;2.72;;
15996;SDS011;8103;51.340;12.326;2023-05-10T04:39:59;4.78;;;3.50;;
15996;SDS011;8103;51.340;12.326;2023-05-10T04:42:26;3.38;;;2.95;;
15996;SDS011;8103;51.340;12.326;2023-05-10T04:44:53;4.18;;;3.25;;
15996;SDS011;8103;51.340;12.326;2023-05-10T04:47:20;4.05;;;3.05;;
15996;SDS011;8103;51.340;12.326;2023-05-10T04:49:47;3.70;;;3.15;;
15996;SDS011;8103;51.340;12.326;2023-05-10T04:52:14;3.80;;;2.83;;
15996;SDS011;8103;51.340;12.326;2023-05-10T04:54:43;5.78;;;3.15;;
15996;SDS011;8103;51.340;12.326;2023-05-10T04:57:10;7.05;;;2.90;;
15996;SDS011;8103;51.340;12.326;2023-05-10T04:59:37;3.72;;;2.78;;
15996;SDS011;8103;51.340;12.326;2023-05-10T05:02:04;5.65;;;2.80;;
15996;SDS011;8103;51.340;12.326;2023-05-10T05:04:31;4.60;;;2.70;;
15996;SDS011;8103;51.340;12.326;2023-05-10T05:06:58;3.95;;;3.40;;
15996;SDS011;8103;51.340;12.326;2023-05-10T05:09:25;5.28;;;3.35;;
15996;SDS011;8103;51.340;12.326;2023-05-10T05:11:52;4.53;;;2.63;;
15996;SDS011;8103;51.340;12.326;2023-05-10T05:14:19;3.38;;;2.47;;
15996;SDS011;8103;51.340;12.326;2023-05-10T05:16:47;3.58;;;3.28;;
15996;SDS011;8103;51.340;12.326;2023-05-10T05:19:13;4.65;;;3.47;;
15996;SDS011;8103;51.340;12.326;2023-05-10T05:21:41;6.50;;;3.13;;
15996;SDS011;8103;51.340;12.326;2023-05-10T05:24:08;2.90;;;2.65;;
15996;SDS011;8103;51.340;12.326;2023-05-10T05:26:38;4.00;;;2.67;;
15996;SDS011;8103;51.340;12.326;2023-05-10T05:29:05;5.38;;;2.97;;
15996;SDS011;8103;51.340;12.326;2023-05-10T05:31:32;4.38;;;2.78;;
15996;SDS011;8103;51.340;12.326;2023-05-10T05:33:59;4.68;;;2.88;;
15996;SDS011;8103;51.340;12.326;2023-05-10T05:36:26;2.53;;;2.30;;
15996;SDS011;8103;51.340;12.326;2023-05-10T05:38:52;3.60;;;2.88;;
15996;SDS011;8103;51.340;12.326;2023-05-10T05:41:19;2.72;;;2.35;;
15996;SDS011;8103;51.340;12.326;2023-05-10T05:43:47;6.47;;;3.40;;
15996;SDS011;8103;51.340;12.326;2023-05-10T05:46:14;5.18;;;3.05;;
15996;SDS011;8103;51.340;12.326;2023-05-10T05:48:41;3.35;;;3.03;;
15996;SDS011;8103;51.340;12.326;2023-05-10T05:51:08;10.48;;;3.83;;
15996;SDS011;8103;51.340;12.326;2023-05-10T05:53:34;3.53;;;2.72;;
15996;SDS011;8103;51.340;12.326;2023-05-10T05:56:01;5.20;;;3.45;;
15996;SDS011;8103;51.340;12.326;2023-05-10T05:58:28;3.63;;;2.78;;
15996;SDS011;8103;51.340;12.326;2023-05-10T06:00:55;5.82;;;3.42;;
15996;SDS011;8103;51.340;12.326;2023-05-10T06:07:28;7.18;;;5.05;;
15996;SDS011;8103;51.340;12.326;2023-05-10T06:09:55;10.02;;;3.13;;
15996;SDS011;8103;51.340;12.326;2023-05-10T06:12:22;7.93;;;3.15;;
15996;SDS011;8103;51.340;12.326;2023-05-10T06:14:49;5.57;;;3.30;;
15996;SDS011;8103;51.340;12.326;2023-05-10T06:17:15;4.57;;;3.03;;
15996;SDS011;8103;51.340;12.326;2023-05-10T06:19:42;4.20;;;2.90;;
15996;SDS011;8103;51.340;12.326;2023-05-10T06:22:09;5.28;;;3.50;;
15996;SDS011;8103;51.340;12.326;2023-05-10T06:24:36;5.03;;;3.22;;
15996;SDS011;8103;51.340;12.326;2023-05-10T06:27:03;6.80;;;3.10;;
15996;SDS011;8103;51.340;12.326;2023-05-10T06:29:30;3.13;;;2.75;;
15996;SDS011;8103;51.340;12.326;2023-05-10T06:31:57;4.13;;;2.88;;
15996;SDS011;8103;51.340;12.326;2023-05-10T06:34:24;6.07;;;3.40;;
15996;SDS011;8103;51.340;12.326;2023-05-10T06:36:51;8.20;;;3.85;;
15996;SDS011;8103;51.340;12.326;2023-05-10T06:39:19;6.47;;;2.83;;
15996;SDS011;8103;51.340;12.326;2023-05-10T06:41:46;4.30;;;2.90;;
15996;SDS011;8103;51.340;12.326;2023-05-10T06:44:12;4.38;;;2.88;;
15996;SDS011;8103;51.340;12.326;2023-05-10T06:46:40;5.93;;;2.85;;
15996;SDS011;8103;51.340;12.326;2023-05-10T06:49:07;6.38;;;2.97;;
15996;SDS011;8103;51.340;12.326;2023-05-10T06:51:34;4.07;;;2.95;;
15996;SDS011;8103;51.340;12.326;2023-05-10T06:54:03;5.65;;;3.53;;
15996;SDS011;8103;51.340;12.326;2023-05-10T06:56:30;7.85;;;3.33;;
15996;SDS011;8103;51.340;12.326;2023-05-10T06:58:56;5.30;;;2.47;;
15996;SDS011;8103;51.340;12.326;2023-05-10T07:01:23;9.05;;;3.50;;
15996;SDS011;8103;51.340;12.326;2023-05-10T07:03:50;3.40;;;2.60;;
15996;SDS011;8103;51.340;12.326;2023-05-10T07:06:17;6.25;;;3.13;;
15996;SDS011;8103;51.340;12.326;2023-05-10T07:08:57;6.65;;;3.13;;
15996;SDS011;8103;51.340;12.326;2023-05-10T07:11:24;10.18;;;3.38;;
15996;SDS011;8103;51.340;12.326;2023-05-10T07:13:51;7.05;;;3.10;;
15996;SDS011;8103;51.340;12.326;2023-05-10T07:16:18;4.95;;;3.22;;
15996;SDS011;8103;51.340;12.326;2023-05-10T07:18:45;6.57;;;2.75;;
15996;SDS011;8103;51.340;12.326;2023-05-10T07:21:12;8.77;;;2.92;;
15996;SDS011;8103;51.340;12.326;2023-05-10T07:23:39;5.20;;;3.38;;
15996;SDS011;8103;51.340;12.326;2023-05-10T07:26:07;6.97;;;2.60;;
15996;SDS011;8103;51.340;12.326;2023-05-10T07:28:33;7.63;;;3.13;;
15996;SDS011;8103;51.340;12.326;2023-05-10T07:31:03;5.97;;;3.58;;
15996;SDS011;8103;51.340;12.326;2023-05-10T07:33:30;4.50;;;2.75;;
15996;SDS011;8103;51.340;12.326;2023-05-10T07:35:57;7.43;;;3.17;;
15996;SDS011;8103;51.340;12.326;2023-05-10T07:38:24;4.55;;;3.10;;
15996;SDS011;8103;51.340;12.326;2023-05-10T07:40:50;4.63;;;2.90;;
15996;SDS011;8103;51.340;12.326;2023-05-10T07:43:17;6.90;;;3.33;;
15996;SDS011;8103;51.340;12.326;2023-05-10T07:45:44;5.28;;;3.30;;
15996;SDS011;8103;51.340;12.326;2023-05-10T07:48:11;4.57;;;2.72;;
15996;SDS011;8103;51.340;12.326;2023-05-10T07:50:38;4.07;;;3.25;;
15996;SDS011;8103;51.340;12.326;2023-05-10T07:53:04;4.20;;;3.05;;
15996;SDS011;8103;51.340;12.326;2023-05-10T07:55:31;3.70;;;3.30;;
15996;SDS011;8103;51.340;12.326;2023-05-10T07:57:58;6.90;;;3.80;;
15996;SDS011;8103;51.340;12.326;2023-05-10T08:00:27;5.13;;;3.05;;
15996;SDS011;8103;51.340;12.326;2023-05-10T08:02:53;3.63;;;3.10;;
15996;SDS011;8103;51.340;12.326;2023-05-10T08:05:20;3.90;;;3.05;;
15996;SDS011;8103;51.340;12.326;2023-05-10T08:07:47;7.07;;;3.80;;
15996;SDS011;8103;51.340;12.326;2023-05-10T08:10:15;8.82;;;3.38;;
15996;SDS011;8103;51.340;12.326;2023-05-10T08:12:42;3.78;;;3.28;;
15996;SDS011;8103;51.340;12.326;2023-05-10T08:15:09;6.15;;;3.25;;
15996;SDS011;8103;51.340;12.326;2023-05-10T08:17:36;4.55;;;3.50;;
15996;SDS011;8103;51.340;12.326;2023-05-10T08:20:03;8.68;;;3.97;;
15996;SDS011;8103;51.340;12.326;2023-05-10T08:22:31;5.10;;;3.28;;
15996;SDS011;8103;51.340;12.326;2023-05-10T08:24:58;3.58;;;3.28;;
15996;SDS011;8103;51.340;12.326;2023-05-10T08:27:25;4.35;;;3.22;;
15996;SDS011;8103;51.340;12.326;2023-05-10T08:29:52;12.52;;;3.90;;
15996;SDS011;8103;51.340;12.326;2023-05-10T08:32:18;5.85;;;3.28;;
15996;SDS011;8103;51.340;12.326;2023-05-10T08:34:45;6.28;;;4.68;;
15996;SDS011;8103;51.340;12.326;2023-05-10T08:37:12;5.80;;;3.42;;
15996;SDS011;8103;51.340;12.326;2023-05-10T08:39:39;4.60;;;3.50;;
15996;SDS011;8103;51.340;12.326;2023-05-10T08:42:06;3.97;;;2.90;;
15996;SDS011;8103;51.340;12.326;2023-05-10T08:44:36;6.88;;;3.38;;
15996;SDS011;8103;51.340;12.326;2023-05-10T08:47:06;4.80;;;2.97;;
15996;SDS011;8103;51.340;12.326;2023-05-10T08:49:33;8.73;;;3.90;;
15996;SDS011;8103;51.340;12.326;2023-05-10T08:52:04;6.05;;;3.42;;
15996;SDS011;8103;51.340;12.326;2023-05-10T08:54:33;4.82;;;3.92;;
15996;SDS011;8103;51.340;12.326;2023-05-10T08:57:00;6.38;;;3.90;;
15996;SDS011;8103;51.340;12.326;2023-05-10T08:59:28;10.40;;;4.10;;
15996;SDS011;8103;51.340;12.326;2023-05-10T09:01:56;5.05;;;4.30;;
15996;SDS011;8103;51.340;12.326;2023-05-10T09:04:25;4.65;;;4.20;;
15996;SDS011;8103;51.340;12.326;2023-05-10T09:06:52;5.38;;;4.82;;
15996;SDS011;8103;51.340;12.326;2023-05-10T09:09:19;5.40;;;4.72;;
15996;SDS011;8103;51.340;12.326;2023-05-10T09:11:47;5.88;;;4.18;;
15996;SDS011;8103;51.340;12.326;2023-05-10T09:14:14;11.32;;;4.72;;
15996;SDS011;8103;51.340;12.326;2023-05-10T09:16:42;5.45;;;4.10;;
15996;SDS011;8103;51.340;12.326;2023-05-10T09:19:10;5.93;;;4.57;;
15996;SDS011;8103;51.340;12.326;2023-05-10T09:21:37;4.70;;;4.30;;
15996;SDS011;8103;51.340;12.326;2023-05-10T09:24:05;7.47;;;4.82;;
15996;SDS011;8103;51.340;12.326;2023-05-10T09:26:34;6.63;;;4.65;;
15996;SDS011;8103;51.340;12.326;2023-05-10T09:29:11;6.30;;;4.53;;
15996;SDS011;8103;51.340;12.326;2023-05-10T09:31:50;8.50;;;5.15;;
15996;SDS011;8103;51.340;12.326;2023-05-10T09:34:18;5.68;;;4.72;;
15996;SDS011;8103;51.340;12.326;2023-05-10T09:36:51;7.43;;;5.38;;
15996;SDS011;8103;51.340;12.326;2023-05-10T09:39:19;6.82;;;4.88;;
15996;SDS011;8103;51.340;12.326;2023-05-10T09:41:46;7.32;;;4.60;;
15996;SDS011;8103;51.340;12.326;2023-05-10T09:44:16;6.55;;;5.65;;
15996;SDS011;8103;51.340;12.326;2023-05-10T09:46:48;7.35;;;4.65;;
15996;SDS011;8103;51.340;12.326;2023-05-10T09:49:17;6.13;;;5.53;;
15996;SDS011;8103;51.340;12.326;2023-05-10T09:51:43;6.85;;;5.82;;
15996;SDS011;8103;51.340;12.326;2023-05-10T09:54:11;5.60;;;5.10;;
15996;SDS011;8103;51.340;12.326;2023-05-10T09:56:41;5.28;;;4.78;;
15996;SDS011;8103;51.340;12.326;2023-05-10T09:59:11;5.32;;;4.82;;
15996;SDS011;8103;51.340;12.326;2023-05-10T10:01:39;6.72;;;5.15;;
15996;SDS011;8103;51.340;12.326;2023-05-10T10:04:10;7.38;;;5.22;;
15996;SDS011;8103;51.340;12.326;2023-05-10T10:06:38;8.27;;;5.07;;
15996;SDS011;8103;51.340;12.326;2023-05-10T10:09:06;6.65;;;4.68;;
15996;SDS011;8103;51.340;12.326;2023-05-10T10:11:34;5.55;;;5.03;;
15996;SDS011;8103;51.340;12.326;2023-05-10T10:14:03;7.30;;;5.97;;
15996;SDS011;8103;51.340;12.326;2023-05-10T10:16:31;6.70;;;5.00;;
15996;SDS011;8103;51.340;12.326;2023-05-10T10:18:59;8.63;;;5.68;;
15996;SDS011;8103;51.340;12.326;2023-05-10T10:21:26;6.20;;;5.38;;
15996;SDS011;8103;51.340;12.326;2023-05-10T10:23:53;6.35;;;4.85;;
15996;SDS011;8103;51.340;12.326;2023-05-10T10:26:20;7.05;;;5.28;;
15996;SDS011;8103;51.340;12.326;2023-05-10T10:29:05;7.30;;;5.28;;
15996;SDS011;8103;51.340;12.326;2023-05-10T10:31:57;7.82;;;5.53;;
15996;SDS011;8103;51.340;12.326;2023-05-10T10:34:45;6.35;;;5.75;;
15996;SDS011;8103;51.340;12.326;2023-05-10T10:37:13;5.43;;;4.88;;
15996;SDS011;8103;51.340;12.326;2023-05-10T10:39:40;7.07;;;4.95;;
15996;SDS011;8103;51.340;12.326;2023-05-10T10:42:07;5.88;;;5.13;;
15996;SDS011;8103;51.340;12.326;2023-05-10T10:44:35;6.70;;;6.00;;
15996;SDS011;8103;51.340;12.326;2023-05-10T10:47:05;8.95;;;6.45;;
15996;SDS011;8103;51.340;12.326;2023-05-10T10:55:04;6.72;;;5.80;;
15996;SDS011;8103;51.340;12.326;2023-05-10T10:57:45;7.97;;;6.45;;
15996;SDS011;8103;51.340;12.326;2023-05-10T11:00:25;7.15;;;5.30;;
15996;SDS011;8103;51.340;12.326;2023-05-10T11:02:58;7.00;;;5.95;;
15996;SDS011;8103;51.340;12.326;2023-05-10T11:05:35;8.35;;;6.03;;
15996;SDS011;8103;51.340;12.326;2023-05-10T11:08:19;6.72;;;5.90;;
15996;SDS011;8103;51.340;12.326;2023-05-10T11:16:23;6.78;;;6.10;;
15996;SDS011;8103;51.340;12.326;2023-05-10T11:21:33;10.68;;;7.07;;
15996;SDS011;8103;51.340;12.326;2023-05-10T11:24:15;6.70;;;6.10;;
15996;SDS011;8103;51.340;12.326;2023-05-10T11:26:52;7.25;;;6.53;;
15996;SDS011;8103;51.340;12.326;2023-05-10T11:29:20;6.28;;;5.57;;
15996;SDS011;8103;51.340;12.326;2023-05-10T11:31:47;9.38;;;7.50;;
15996;SDS011;8103;51.340;12.326;2023-05-10T11:34:28;6.38;;;5.78;;
15996;SDS011;8103;51.340;12.326;2023-05-10T11:36:59;7.00;;;6.22;;
15996;SDS011;8103;51.340;12.326;2023-05-10T11:39:27;7.60;;;6.20;;
15996;SDS011;8103;51.340;12.326;2023-05-10T11:41:57;6.55;;;5.85;;
15996;SDS011;8103;51.340;12.326;2023-05-10T11:44:30;7.60;;;6.10;;
15996;SDS011;8103;51.340;12.326;2023-05-10T11:51:06;7.53;;;5.65;;
15996;SDS011;8103;51.340;12.326;2023-05-10T11:53:34;6.63;;;6.03;;
15996;SDS011;8103;51.340;12.326;2023-05-10T11:56:10;5.63;;;4.90;;
15996;SDS011;8103;51.340;12.326;2023-05-10T11:58:38;7.78;;;5.55;;
15996;SDS011;8103;51.340;12.326;2023-05-10T12:01:07;5.30;;;4.80;;
15996;SDS011;8103;51.340;12.326;2023-05-10T12:03:35;6.75;;;5.07;;
15996;SDS011;8103;51.340;12.326;2023-05-10T12:06:03;6.97;;;5.85;;
15996;SDS011;8103;51.340;12.326;2023-05-10T12:08:31;6.57;;;5.88;;
15996;SDS011;8103;51.340;12.326;2023-05-10T12:11:05;7.68;;;4.95;;
15996;SDS011;8103;51.340;12.326;2023-05-10T12:13:41;6.07;;;5.55;;
15996;SDS011;8103;51.340;12.326;2023-05-10T12:16:16;7.68;;;5.68;;
15996;SDS011;8103;51.340;12.326;2023-05-10T12:18:48;6.85;;;5.85;;
15996;SDS011;8103;51.340;12.326;2023-05-10T12:21:20;5.80;;;5.30;;
15996;SDS011;8103;51.340;12.326;2023-05-10T12:23:50;5.60;;;4.68;;
15996;SDS011;8103;51.340;12.326;2023-05-10T12:26:23;7.03;;;5.00;;
15996;SDS011;8103;51.340;12.326;2023-05-10T12:28:53;7.20;;;5.32;;
15996;SDS011;8103;51.340;12.326;2023-05-10T12:31:20;5.03;;;4.55;;
15996;SDS011;8103;51.340;12.326;2023-05-10T12:33:47;5.85;;;5.35;;
15996;SDS011;8103;51.340;12.326;2023-05-10T12:36:15;5.75;;;5.15;;
15996;SDS011;8103;51.340;12.326;2023-05-10T12:38:44;5.57;;;5.07;;
15996;SDS011;8103;51.340;12.326;2023-05-10T12:41:15;5.80;;;5.28;;
15996;SDS011;8103;51.340;12.326;2023-05-10T12:43:44;5.72;;;5.22;;
15996;SDS011;8103;51.340;12.326;2023-05-10T12:46:12;6.90;;;5.20;;
15996;SDS011;8103;51.340;12.326;2023-05-10T12:48:43;5.80;;;5.05;;
15996;SDS011;8103;51.340;12.326;2023-05-10T12:51:11;6.70;;;6.00;;
15996;SDS011;8103;51.340;12.326;2023-05-10T12:53:45;5.85;;;5.35;;
15996;SDS011;8103;51.340;12.326;2023-05-10T12:56:14;7.80;;;5.35;;
15996;SDS011;8103;51.340;12.326;2023-05-10T12:58:41;5.72;;;5.18;;
15996;SDS011;8103;51.340;12.326;2023-05-10T13:01:14;6.75;;;4.78;;
15996;SDS011;8103;51.340;12.326;2023-05-10T13:03:41;5.45;;;4.78;;
15996;SDS011;8103;51.340;12.326;2023-05-10T13:06:09;5.68;;;4.53;;
15996;SDS011;8103;51.340;12.326;2023-05-10T13:08:35;6.05;;;4.35;;
15996;SDS011;8103;51.340;12.326;2023-05-10T13:11:02;6.05;;;4.90;;
15996;SDS011;8103;51.340;12.326;2023-05-10T13:13:31;5.28;;;4.78;;
15996;SDS011;8103;51.340;12.326;2023-05-10T13:15:59;4.70;;;4.20;;
15996;SDS011;8103;51.340;12.326;2023-05-10T13:18:26;6.25;;;5.65;;
15996;SDS011;8103;51.340;12.326;2023-05-10T13:20:53;5.10;;;4.57;;
15996;SDS011;8103;51.340;12.326;2023-05-10T13:23:20;4.70;;;4.30;;
15996;SDS011;8103;51.340;12.326;2023-05-10T13:25:47;5.53;;;3.97;;
15996;SDS011;8103;51.340;12.326;2023-05-10T13:28:14;8.07;;;5.32;;
15996;SDS011;8103;51.340;12.326;2023-05-10T13:30:41;4.82;;;4.35;;
15996;SDS011;8103;51.340;12.326;2023-05-10T13:33:08;4.95;;;4.22;;
15996;SDS011;8103;51.340;12.326;2023-05-10T13:35:35;5.60;;;5.10;;
15996;SDS011;8103;51.340;12.326;2023-05-10T13:38:02;4.63;;;4.22;;
15996;SDS011;8103;51.340;12.326;2023-05-10T13:40:28;4.68;;;4.28;;
15996;SDS011;8103;51.340;12.326;2023-05-10T13:42:55;5.57;;;4.80;;
15996;SDS011;8103;51.340;12.326;2023-05-10T13:45:22;5.93;;;5.43;;
15996;SDS011;8103;51.340;12.326;2023-05-10T13:51:48;4.75;;;4.32;;
15996;SDS011;8103;51.340;12.326;2023-05-10T13:54:15;3.38;;;3.08;;
15996;SDS011;8103;51.340;12.326;2023-05-10T13:56:45;4.03;;;1.88;;
15996;SDS011;8103;51.340;12.326;2023-05-10T13:59:13;1.20;;;1.10;;
15996;SDS011;8103;51.340;12.326;2023-05-10T14:01:41;1.10;;;0.98;;
15996;SDS011;8103;51.340;12.326;2023-05-10T14:04:08;1.00;;;0.75;;
15996;SDS011;8103;51.340;12.326;2023-05-10T14:06:36;1.10;;;0.73;;
15996;SDS011;8103;51.340;12.326;2023-05-10T14:09:03;1.85;;;0.75;;
15996;SDS011;8103;51.340;12.326;2023-05-10T14:11:30;2.25;;;0.98;;
15996;SDS011;8103;51.340;12.326;2023-05-10T14:13:57;4.28;;;0.82;;
15996;SDS011;8103;51.340;12.326;2023-05-10T14:16:24;1.20;;;1.10;;
15996;SDS011;8103;51.340;12.326;2023-05-10T14:18:51;1.95;;;1.15;;
15996;SDS011;8103;51.340;12.326;2023-05-10T14:21:18;2.20;;;1.05;;
15996;SDS011;8103;51.340;12.326;2023-05-10T14:23:45;1.13;;;0.90;;
15996;SDS011;8103;51.340;12.326;2023-05-10T14:26:12;2.15;;;1.58;;
15996;SDS011;8103;51.340;12.326;2023-05-10T14:28:39;1.42;;;1.33;;
15996;SDS011;8103;51.340;12.326;2023-05-10T14:31:06;2.40;;;1.85;;
15996;SDS011;8103;51.340;12.326;2023-05-10T14:33:33;1.50;;;1.25;;
15996;SDS011;8103;51.340;12.326;2023-05-10T14:35:59;2.60;;;1.33;;
15996;SDS011;8103;51.340;12.326;2023-05-10T14:38:27;1.75;;;1.65;;
15996;SDS011;8103;51.340;12.326;2023-05-10T14:40:53;2.17;;;1.88;;
15996;SDS011;8103;51.340;12.326;2023-05-10T14:43:20;1.70;;;1.60;;
15996;SDS011;8103;51.340;12.326;2023-05-10T14:45:47;2.58;;;2.25;;
15996;SDS011;8103;51.340;12.326;2023-05-10T14:48:14;3.47;;;2.30;;
15996;SDS011;8103;51.340;12.326;2023-05-10T14:50:43;2.13;;;1.92;;
15996;SDS011;8103;51.340;12.326;2023-05-10T14:53:12;2.90;;;2.60;;
15996;SDS011;8103;51.340;12.326;2023-05-10T14:55:39;3.15;;;2.63;;
15996;SDS011;8103;51.340;12.326;2023-05-10T14:58:06;2.47;;;2.28;;
15996;SDS011;8103;51.340;12.326;2023-05-10T15:00:33;3.20;;;2.53;;
15996;SDS011;8103;51.340;12.326;2023-05-10T15:02:59;1.70;;;1.60;;
15996;SDS011;8103;51.340;12.326;2023-05-10T15:05:27;1.60;;;1.48;;
15996;SDS011;8103;51.340;12.326;2023-05-10T15:07:54;1.40;;;1.30;;
15996;SDS011;8103;51.340;12.326;2023-05-10T15:10:21;1.75;;;1.25;;
15996;SDS011;8103;51.340;12.326;2023-05-10T15:12:48;2.03;;;1.83;;
15996;SDS011;8103;51.340;12.326;2023-05-10T15:15:15;1.73;;;1.63;;
15996;SDS011;8103;51.340;12.326;2023-05-10T15:17:42;2.30;;;2.13;;
15996;SDS011;8103;51.340;12.326;2023-05-10T15:20:09;3.25;;;2.22;;
15996;SDS011;8103;51.340;12.326;2023-05-10T15:22:36;1.65;;;1.55;;
15996;SDS011;8103;51.340;12.326;2023-05-10T15:25:04;1.77;;;1.40;;
15996;SDS011;8103;51.340;12.326;2023-05-10T15:31:32;1.30;;;1.20;;
15996;SDS011;8103;51.340;12.326;2023-05-10T15:34:01;2.55;;;1.25;;
15996;SDS011;8103;51.340;12.326;2023-05-10T15:36:28;0.80;;;0.80;;
15996;SDS011;8103;51.340;12.326;2023-05-10T15:38:55;1.33;;;0.75;;
15996;SDS011;8103;51.340;12.326;2023-05-10T15:41:22;1.10;;;1.05;;
15996;SDS011;8103;51.340;12.326;2023-05-10T15:43:49;1.23;;;1.13;;